createdAt,value
2019-03-12T00:01:21.123Z,101421.65
2019-03-12T00:03:54.391Z,101421.70
2019-03-12T00:06:27.769Z,101411.52
2019-03-12T00:08:58.195Z,101412.43
2019-03-12T00:11:31.051Z,101416.30
2019-03-12T00:14:01.488Z,101413.57
2019-03-12T00:16:31.988Z,101417.56
2019-03-12T00:19:02.362Z,101418.02
2019-03-12T00:21:32.731Z,101418.43
2019-03-12T00:24:02.983Z,101420.20
2019-03-12T00:26:34.253Z,101426.05
2019-03-12T00:29:04.550Z,101425.74
2019-03-12T00:31:34.847Z,101420.52
2019-03-12T00:34:06.693Z,101427.14
2019-03-12T00:36:37.417Z,101418.38
2019-03-12T00:39:08.377Z,101426.23
2019-03-12T00:41:38.681Z,101423.06
2019-03-12T00:44:09.907Z,101428.69
2019-03-12T00:46:40.686Z,101431.73
2019-03-12T00:49:12.568Z,101433.14
2019-03-12T00:51:43.126Z,101432.74
2019-03-12T00:54:13.847Z,101434.27
2019-03-12T00:56:45.482Z,101443.66
2019-03-12T00:59:15.735Z,101446.39
2019-03-12T01:01:49.666Z,101447.83
2019-03-12T01:04:20.048Z,101445.73
2019-03-12T01:06:50.301Z,101444.05
2019-03-12T01:09:20.626Z,101445.03
2019-03-12T01:11:51.867Z,101445.48
2019-03-12T01:14:22.077Z,101440.67
2019-03-12T01:16:52.839Z,101438.05
2019-03-12T01:19:23.136Z,101437.09
2019-03-12T01:21:53.418Z,101434.42
2019-03-12T01:24:23.758Z,101433.06
2019-03-12T01:26:54.130Z,101426.89
2019-03-12T01:29:24.417Z,101428.61
2019-03-12T01:31:54.877Z,101421.53
2019-03-12T01:34:25.459Z,101408.01
2019-03-12T01:36:55.902Z,101414.13
2019-03-12T01:39:29.479Z,101411.95
2019-03-12T01:42:02.493Z,101415.28
2019-03-12T01:44:32.858Z,101416.55
2019-03-12T01:47:03.982Z,101414.78
2019-03-12T01:49:34.520Z,101401.93
2019-03-12T01:52:04.961Z,101409.30
2019-03-12T01:54:36.731Z,101408.83
2019-03-12T01:57:07.110Z,101411.80
2019-03-12T01:59:37.441Z,101412.16
2019-03-12T02:02:09.777Z,101407.66
2019-03-12T02:04:41.913Z,101416.75
2019-03-12T02:07:12.886Z,101422.43
2019-03-12T02:09:43.343Z,101419.65
2019-03-12T02:12:14.909Z,101419.56
2019-03-12T02:14:47.495Z,101414.83
2019-03-12T02:17:18.436Z,101407.34
2019-03-12T02:19:49.182Z,101400.44
2019-03-12T02:22:19.557Z,101397.39
2019-03-12T02:24:52.877Z,101393.03
2019-03-12T02:27:21.856Z,101390.53
2019-03-12T02:29:52.205Z,101386.16
2019-03-12T02:32:23.662Z,101376.90
2019-03-12T02:34:53.980Z,101385.22
2019-03-12T02:37:26.629Z,101377.05
2019-03-12T02:39:58.213Z,101378.09
2019-03-12T02:42:29.594Z,101375.63
2019-03-12T02:45:00.668Z,101372.37
2019-03-12T02:47:31.800Z,101371.82
2019-03-12T02:50:02.205Z,101373.27
2019-03-12T02:52:32.643Z,101366.87
2019-03-12T02:55:03.531Z,101364.19
2019-03-12T02:57:33.780Z,101349.30
2019-03-12T03:00:04.978Z,101354.88
2019-03-12T03:02:35.398Z,101351.02
2019-03-12T03:05:06.130Z,101351.45
2019-03-12T03:08:04.618Z,101343.83
2019-03-12T03:10:34.969Z,101353.50
2019-03-12T03:13:05.504Z,101352.59
2019-03-12T03:15:43.449Z,101353.46
2019-03-12T03:18:13.792Z,101356.95
2019-03-12T03:20:44.371Z,101354.67
2019-03-12T03:23:14.936Z,101360.77
2019-03-12T03:25:47.101Z,101358.34
2019-03-12T03:28:17.884Z,101360.74
2019-03-12T03:30:49.789Z,101362.31
2019-03-12T03:33:19.998Z,101354.50
2019-03-12T03:35:50.357Z,101348.63
2019-03-12T03:38:20.675Z,101343.92
2019-03-12T03:40:51.306Z,101352.13
2019-03-12T03:43:21.964Z,101347.16
2019-03-12T03:45:52.325Z,101351.00
2019-03-12T03:48:22.724Z,101358.51
2019-03-12T03:50:53.282Z,101355.02
2019-03-12T03:53:23.664Z,101355.63
2019-03-12T03:55:53.926Z,101354.41
2019-03-12T03:58:24.283Z,101353.65
2019-03-12T04:00:54.813Z,101356.79
2019-03-12T04:03:25.299Z,101347.88
2019-03-12T04:05:55.686Z,101349.13
2019-03-12T04:08:26.094Z,101344.93
2019-03-12T04:10:56.672Z,101344.57
2019-03-12T04:13:28.788Z,101337.58
2019-03-12T04:15:59.497Z,101338.84
2019-03-12T04:18:29.761Z,101336.66
2019-03-12T04:21:00.493Z,101333.78
2019-03-12T04:23:31.180Z,101329.56
2019-03-12T04:26:02.450Z,101335.75
2019-03-12T04:28:32.910Z,101331.80
2019-03-12T04:31:03.838Z,101324.28
2019-03-12T04:34:17.111Z,101320.38
2019-03-12T04:36:48.681Z,101309.88
2019-03-12T04:39:19.500Z,101302.19
2019-03-12T04:41:50.691Z,101308.25
2019-03-12T04:44:21.102Z,101302.98
2019-03-12T04:46:51.687Z,101304.30
2019-03-12T04:49:22.003Z,101301.83
2019-03-12T04:51:52.866Z,101299.94
2019-03-12T04:54:23.826Z,101297.77
2019-03-12T04:56:55.289Z,101300.39
2019-03-12T04:59:25.553Z,101295.54
2019-03-12T05:01:56.366Z,101295.27
2019-03-12T05:04:27.025Z,101279.91
2019-03-12T05:06:57.371Z,101291.25
2019-03-12T05:09:28.311Z,101284.32
2019-03-12T05:11:59.089Z,101281.04
2019-03-12T05:14:34.188Z,101279.46
2019-03-12T05:17:28.574Z,101272.58
2019-03-12T05:19:59.180Z,101271.81
2019-03-12T05:22:29.796Z,101259.28
2019-03-12T05:25:01.137Z,101249.50
2019-03-12T05:27:31.465Z,101255.17
2019-03-12T05:30:01.947Z,101246.35
2019-03-12T05:32:32.487Z,101250.30
2019-03-12T05:35:02.936Z,101253.45
2019-03-12T05:37:34.263Z,101251.22
2019-03-12T05:40:05.198Z,101248.52
2019-03-12T05:42:35.518Z,101245.03
2019-03-12T05:45:06.486Z,101249.73
2019-03-12T05:47:37.784Z,101244.12
2019-03-12T05:50:08.805Z,101251.76
2019-03-12T05:52:39.279Z,101253.59
2019-03-12T05:55:10.204Z,101238.40
2019-03-12T05:57:41.895Z,101245.30
2019-03-12T06:00:13.367Z,101243.06
2019-03-12T06:02:43.695Z,101241.97
2019-03-12T06:05:14.523Z,101235.20
2019-03-12T06:07:45.280Z,101233.77
2019-03-12T06:10:15.987Z,101232.80
2019-03-12T06:12:46.528Z,101224.48
2019-03-12T06:15:18.080Z,101222.98
2019-03-12T06:17:48.617Z,101223.73
2019-03-12T06:20:19.404Z,101224.87
2019-03-12T06:22:49.769Z,101232.49
2019-03-12T06:25:21.326Z,101229.50
2019-03-12T06:27:52.158Z,101235.52
2019-03-12T06:30:25.876Z,101228.16
2019-03-12T06:33:00.133Z,101226.08
2019-03-12T06:35:39.121Z,101223.44
2019-03-12T06:38:26.294Z,101218.64
2019-03-12T06:41:20.599Z,101219.33
2019-03-12T06:43:56.874Z,101224.98
2019-03-12T06:46:46.207Z,101227.97
2019-03-12T06:49:22.616Z,101233.37
2019-03-12T06:52:12.323Z,101223.89
2019-03-12T06:55:01.863Z,101228.72
2019-03-12T06:57:54.107Z,101224.87
2019-03-12T07:00:42.723Z,101223.61
2019-03-12T07:03:24.945Z,101215.16
2019-03-12T07:06:06.313Z,101210.67
2019-03-12T07:08:53.239Z,101208.31
2019-03-12T07:11:47.835Z,101207.83
2019-03-12T07:14:24.285Z,101203.03
2019-03-12T07:17:08.639Z,101203.16
2019-03-12T07:20:03.678Z,101197.01
2019-03-12T07:22:50.565Z,101188.41
2019-03-12T07:25:38.755Z,101179.91
2019-03-12T07:28:22.605Z,101169.45
2019-03-12T07:31:07.902Z,101161.53
2019-03-12T07:33:55.410Z,101161.01
2019-03-12T07:36:40.839Z,101158.02
2019-03-12T07:39:46.560Z,101157.75
2019-03-12T07:42:31.674Z,101162.64
2019-03-12T07:45:14.356Z,101154.28
2019-03-12T07:48:06.923Z,101157.50
2019-03-12T07:51:02.618Z,101154.92
2019-03-12T07:53:58.614Z,101140.85
2019-03-12T07:56:40.687Z,101138.55
2019-03-12T07:59:30.649Z,101136.36
2019-03-12T08:02:24.727Z,101137.22
2019-03-12T08:05:28.472Z,101133.04
2019-03-12T08:08:21.330Z,101121.26
2019-03-12T08:10:56.615Z,101119.52
2019-03-12T08:13:36.229Z,101117.02
2019-03-12T08:16:28.693Z,101102.11
2019-03-12T08:19:11.099Z,101094.48
2019-03-12T08:22:06.615Z,101085.88
2019-03-12T08:24:57.656Z,101081.84
2019-03-12T08:27:47.025Z,101081.31
2019-03-12T08:30:38.570Z,101079.29
2019-03-12T08:33:28.044Z,101067.66
2019-03-12T08:36:07.585Z,101059.16
2019-03-12T08:38:53.435Z,101054.84
2019-03-12T08:41:42.946Z,101047.44
2019-03-12T08:44:22.423Z,101043.32
2019-03-12T08:47:04.106Z,101033.19
2019-03-12T08:50:12.730Z,101021.01
2019-03-12T08:52:50.136Z,101014.54
2019-03-12T08:55:42.261Z,101008.27
2019-03-12T08:58:29.926Z,100996.61
2019-03-12T09:01:11.888Z,100997.73
2019-03-12T09:03:59.933Z,100993.52
2019-03-12T09:06:37.069Z,100985.53
2019-03-12T09:09:14.805Z,100987.67
2019-03-12T09:11:56.934Z,100981.14
2019-03-12T09:14:35.925Z,100986.70
2019-03-12T09:17:26.108Z,100979.39
2019-03-12T09:20:30.893Z,100973.45
2019-03-12T09:23:26.235Z,100966.22
2019-03-12T09:26:13.903Z,100951.35
2019-03-12T09:29:15.775Z,100944.58
2019-03-12T09:32:01.216Z,100940.28
2019-03-12T09:34:50.542Z,100925.44
2019-03-12T09:37:48.553Z,100915.16
2019-03-12T09:40:46.698Z,100906.48
2019-03-12T09:43:40.062Z,100911.78
2019-03-12T09:46:27.461Z,100904.82
2019-03-12T09:49:15.305Z,100895.88
2019-03-12T09:52:19.118Z,100891.58
2019-03-12T09:55:11.535Z,100894.02
2019-03-12T09:57:59.812Z,100890.74
2019-03-12T10:00:47.873Z,100865.59
2019-03-12T10:03:29.655Z,100855.92
2019-03-12T10:06:12.766Z,100846.97
2019-03-12T10:08:49.466Z,100849.12
2019-03-12T10:11:52.118Z,100841.72
2019-03-12T10:14:35.881Z,100843.21
2019-03-12T10:17:31.389Z,100852.58
2019-03-12T10:20:19.923Z,100847.10
2019-03-12T10:23:17.127Z,100843.43
2019-03-12T10:26:05.359Z,100832.30
2019-03-12T10:28:57.704Z,100828.11
2019-03-12T10:31:35.693Z,100815.53
2019-03-12T10:34:29.500Z,100800.95
2019-03-12T10:37:12.388Z,100787.98
2019-03-12T10:40:07.997Z,100786.52
2019-03-12T10:43:30.917Z,100775.17
2019-03-12T10:46:27.232Z,100768.44
2019-03-12T10:48:57.532Z,100759.54
2019-03-12T10:51:27.795Z,100747.98
2019-03-12T10:53:58.934Z,100757.27
2019-03-12T10:56:30.203Z,100742.08
2019-03-12T10:59:00.660Z,100749.10
2019-03-12T11:01:31.222Z,100732.94
2019-03-12T11:04:01.635Z,100733.97
2019-03-12T11:06:32.190Z,100725.63
2019-03-12T11:09:04.286Z,100714.70
2019-03-12T11:11:35.093Z,100716.02
2019-03-12T11:14:06.614Z,100695.05
2019-03-12T11:16:39.681Z,100693.39
2019-03-12T11:19:10.368Z,100685.39
2019-03-12T11:21:42.129Z,100682.27
2019-03-12T11:24:12.676Z,100684.30
2019-03-12T11:26:43.391Z,100680.63
2019-03-12T11:29:13.890Z,100680.40
2019-03-12T11:31:44.235Z,100671.85
2019-03-12T11:34:15.701Z,100666.05
2019-03-12T11:36:46.185Z,100660.66
2019-03-12T11:39:16.697Z,100656.97
2019-03-12T11:41:47.808Z,100651.30
2019-03-12T11:44:18.173Z,100661.84
2019-03-12T11:46:48.769Z,100667.98
2019-03-12T11:49:19.415Z,100659.56
2019-03-12T11:51:49.877Z,100650.08
2019-03-12T11:54:23.927Z,100645.55
2019-03-12T11:56:55.919Z,100644.00
2019-03-12T11:59:34.665Z,100631.41
2019-03-12T12:02:05.511Z,100612.02
2019-03-12T12:04:36.089Z,100609.45
2019-03-12T12:07:06.729Z,100606.72
2019-03-12T12:09:37.397Z,100611.25
2019-03-12T12:12:07.667Z,100586.38
2019-03-12T12:14:38.110Z,100578.14
2019-03-12T12:17:08.976Z,100576.34
2019-03-12T12:19:40.256Z,100564.89
2019-03-12T12:22:10.527Z,100562.72
2019-03-12T12:24:42.047Z,100539.17
2019-03-12T12:27:13.375Z,100529.05
2019-03-12T12:29:43.955Z,100524.01
2019-03-12T12:32:14.131Z,100516.27
2019-03-12T12:34:45.446Z,100486.81
2019-03-12T12:37:15.830Z,100491.33
2019-03-12T12:39:46.520Z,100481.82
2019-03-12T12:42:16.842Z,100470.39
2019-03-12T12:44:47.506Z,100464.00
2019-03-12T12:47:19.773Z,100452.46
2019-03-12T12:49:53.346Z,100440.27
2019-03-12T12:52:23.881Z,100432.55
2019-03-12T12:54:54.522Z,100416.93
2019-03-12T12:57:25.289Z,100404.06
2019-03-12T12:59:55.659Z,100405.19
2019-03-12T13:02:26.254Z,100393.35
2019-03-12T13:04:56.753Z,100374.80
2019-03-12T13:07:28.709Z,100360.89
2019-03-12T13:10:02.077Z,100355.50
2019-03-12T13:12:32.539Z,100360.27
2019-03-12T13:15:03.197Z,100355.37
2019-03-12T13:17:34.733Z,100353.52
2019-03-12T13:20:06.008Z,100340.45
2019-03-12T13:22:36.216Z,100335.55
2019-03-12T13:25:07.688Z,100336.39
2019-03-12T13:27:42.487Z,100339.73
2019-03-12T13:30:15.960Z,100324.38
2019-03-12T13:32:46.270Z,100320.18
2019-03-12T13:35:16.792Z,100300.30
2019-03-12T13:37:48.044Z,100294.05
2019-03-12T13:40:18.990Z,100299.34
2019-03-12T13:42:51.354Z,100305.37
2019-03-12T13:45:23.383Z,100288.34
2019-03-12T13:47:53.746Z,100292.29
2019-03-12T13:50:25.894Z,100285.29
2019-03-12T13:52:56.548Z,100274.56
2019-03-12T13:55:29.694Z,100272.16
2019-03-12T13:58:03.886Z,100269.70
2019-03-12T14:00:36.855Z,100268.53
2019-03-12T14:03:08.738Z,100234.66
2019-03-12T14:05:40.365Z,100236.02
2019-03-12T14:08:14.081Z,100231.19
2019-03-12T14:10:46.714Z,100218.95
2019-03-12T14:13:20.860Z,100220.59
2019-03-12T14:15:51.501Z,100211.80
2019-03-12T14:18:26.697Z,100209.43
2019-03-12T14:21:16.336Z,100203.56
2019-03-12T14:23:56.966Z,100202.08
2019-03-12T14:26:29.787Z,100186.03
2019-03-12T14:29:00.838Z,100170.69
2019-03-12T14:31:35.566Z,100159.52
2019-03-12T14:34:08.215Z,100149.14
2019-03-12T14:36:44.610Z,100142.33
2019-03-12T14:39:19.116Z,100135.69
2019-03-12T14:41:51.898Z,100124.34
2019-03-12T14:44:23.723Z,100106.72
2019-03-12T14:46:55.086Z,100109.20
2019-03-12T14:49:25.556Z,100109.47
2019-03-12T14:52:29.339Z,100101.82
2019-03-12T14:54:59.838Z,100098.86
2019-03-12T14:57:30.571Z,100086.86
2019-03-12T15:00:01.341Z,100082.20
2019-03-12T15:02:31.843Z,100071.33
2019-03-12T15:05:02.449Z,100070.95
2019-03-12T15:07:32.927Z,100066.98
2019-03-12T15:10:03.708Z,100058.28
2019-03-12T15:12:34.082Z,100038.47
2019-03-12T15:15:05.060Z,100024.84
2019-03-12T15:17:35.633Z,100018.70
2019-03-12T15:20:06.278Z,100017.37
2019-03-12T15:22:36.618Z,100009.14
2019-03-12T15:25:07.639Z,99988.58
2019-03-12T15:27:38.978Z,99983.55
2019-03-12T15:30:13.060Z,99976.07
2019-03-12T15:32:44.796Z,99976.38
2019-03-12T15:35:15.668Z,99963.97
2019-03-12T15:37:47.439Z,99962.44
2019-03-12T15:40:18.121Z,99948.13
2019-03-12T15:42:49.778Z,99955.21
2019-03-12T15:45:20.131Z,99930.19
2019-03-12T15:47:50.531Z,99922.31
2019-03-12T15:50:21.122Z,99918.13
2019-03-12T15:52:52.216Z,99924.06
2019-03-12T15:55:22.994Z,99899.80
2019-03-12T15:57:53.317Z,99897.41
2019-03-12T16:00:26.897Z,99903.08
2019-03-12T16:02:57.823Z,99878.06
2019-03-12T16:05:29.699Z,99877.00
2019-03-12T16:08:03.283Z,99877.00
2019-03-12T16:10:35.981Z,99865.21
2019-03-12T16:13:07.935Z,99854.97
2019-03-12T16:15:41.295Z,99838.50
2019-03-12T16:18:14.615Z,99849.11
2019-03-12T16:20:44.621Z,99841.55
2019-03-12T16:23:18.593Z,99826.97
2019-03-12T16:25:50.898Z,99826.70
2019-03-12T16:28:23.996Z,99831.72
2019-03-12T16:30:54.415Z,99808.28
2019-03-12T16:33:27.799Z,99806.11
2019-03-12T16:35:58.180Z,99789.24
2019-03-12T16:38:29.279Z,99788.03
2019-03-12T16:41:00.484Z,99785.38
2019-03-12T16:43:31.607Z,99776.20
2019-03-12T16:46:02.394Z,99770.79
2019-03-12T16:48:32.748Z,99759.81
2019-03-12T16:51:03.070Z,99746.27
2019-03-12T16:53:33.394Z,99738.97
2019-03-12T16:56:04.085Z,99739.82
2019-03-12T16:58:37.089Z,99733.75
2019-03-12T17:01:08.185Z,99735.47
2019-03-12T17:03:38.546Z,99722.22
2019-03-12T17:06:11.314Z,99715.73
2019-03-12T17:08:41.769Z,99727.33
2019-03-12T17:11:14.791Z,99713.59
2019-03-12T17:13:47.750Z,99700.50
2019-03-12T17:16:19.397Z,99698.11
2019-03-12T17:18:50.227Z,99684.50
2019-03-12T17:21:23.011Z,99684.91
2019-03-12T17:23:54.909Z,99675.14
2019-03-12T17:26:29.947Z,99670.34
2019-03-12T17:29:03.629Z,99671.36
2019-03-12T17:31:34.663Z,99663.05
2019-03-12T17:34:12.722Z,99655.94
2019-03-12T17:37:03.673Z,99650.52
2019-03-12T17:39:30.812Z,99636.77
2019-03-12T17:42:03.596Z,99634.34
2019-03-12T17:44:37.008Z,99637.59
2019-03-12T17:47:08.187Z,99631.56
2019-03-12T17:49:41.094Z,99624.03
2019-03-12T17:52:15.857Z,99604.38
2019-03-12T17:54:50.200Z,99603.54
2019-03-12T17:57:21.997Z,99601.37
2019-03-12T17:59:54.923Z,99590.50
2019-03-12T18:02:41.895Z,99588.94
2019-03-12T18:05:05.172Z,99571.77
2019-03-12T18:07:36.501Z,99573.70
2019-03-12T18:10:07.045Z,99564.88
2019-03-12T18:12:45.908Z,99571.98
2019-03-12T18:15:19.382Z,99564.88
2019-03-12T18:17:52.253Z,99550.66
2019-03-12T18:20:23.545Z,99552.66
2019-03-12T18:22:54.225Z,99540.48
2019-03-12T18:25:26.477Z,99531.30
2019-03-12T18:28:00.986Z,99514.86
2019-03-12T18:30:35.384Z,99508.53
2019-03-12T18:33:06.095Z,99504.98
2019-03-12T18:35:37.407Z,99496.95
2019-03-12T18:38:10.752Z,99489.48
2019-03-12T18:40:45.096Z,99479.56
2019-03-12T18:43:19.197Z,99465.94
2019-03-12T18:45:49.834Z,99459.66
2019-03-12T18:48:24.574Z,99454.56
2019-03-12T18:51:03.487Z,99448.99
2019-03-12T18:53:34.352Z,99439.67
2019-03-12T18:56:08.801Z,99436.17
2019-03-12T18:58:43.178Z,99427.63
2019-03-12T19:01:22.081Z,99425.34
2019-03-12T19:03:52.379Z,99411.98
2019-03-12T19:06:23.220Z,99413.42
2019-03-12T19:08:54.485Z,99416.07
2019-03-12T19:11:27.160Z,99407.76
2019-03-12T19:13:59.370Z,99400.52
2019-03-12T19:16:29.955Z,99395.22
2019-03-12T19:19:01.024Z,99397.34
2019-03-12T19:21:32.682Z,99399.91
2019-03-12T19:24:03.220Z,99399.68
2019-03-12T19:26:34.129Z,99393.84
2019-03-12T19:29:06.838Z,99371.64
2019-03-12T19:32:13.722Z,99367.78
2019-03-12T19:34:44.946Z,99359.72
2019-03-12T19:37:15.522Z,99357.07
2019-03-12T19:39:46.074Z,99353.86
2019-03-12T19:42:17.281Z,99343.88
2019-03-12T19:44:47.852Z,99336.04
2019-03-12T19:47:18.836Z,99328.21
2019-03-12T19:49:49.605Z,99335.31
2019-03-12T19:52:20.372Z,99328.30
2019-03-12T19:54:51.430Z,99320.88
2019-03-12T19:57:23.269Z,99320.03
2019-03-12T19:59:54.553Z,99321.37
2019-03-12T20:02:28.277Z,99312.69
2019-03-12T20:05:01.941Z,99310.77
2019-03-12T20:07:32.618Z,99306.07
2019-03-12T20:10:44.211Z,99296.19
2019-03-12T20:14:03.788Z,99294.50
2019-03-12T20:17:24.103Z,99288.48
2019-03-12T20:20:41.700Z,99265.81
2019-03-12T20:23:54.601Z,99266.77
2019-03-12T20:27:08.542Z,99251.12
2019-03-12T20:30:14.650Z,99246.19
2019-03-12T20:33:21.790Z,99232.34
2019-03-12T20:36:29.033Z,99236.75
2019-03-12T20:39:36.393Z,99227.45
2019-03-12T20:43:05.559Z,99205.98
2019-03-12T20:45:55.714Z,99210.55
2019-03-12T20:49:10.948Z,99202.73
2019-03-12T20:52:11.174Z,99183.00
2019-03-12T20:55:16.937Z,99175.81
2019-03-12T20:58:25.425Z,99159.11
2019-03-12T21:01:50.849Z,99157.09
2019-03-12T21:05:13.190Z,99154.96
2019-03-12T21:08:43.041Z,99137.41
2019-03-12T21:11:48.787Z,99139.10
2019-03-12T21:14:58.861Z,99140.80
2019-03-12T21:18:13.565Z,99116.22
2019-03-12T21:21:36.101Z,99124.77
2019-03-12T21:24:59.871Z,99120.28
2019-03-12T21:27:57.826Z,99130.70
2019-03-12T21:30:28.559Z,99121.38
2019-03-12T21:32:59.869Z,99095.00
2019-03-12T21:35:30.196Z,99097.89
2019-03-12T21:38:00.867Z,99098.70
2019-03-12T21:40:31.123Z,99076.68
2019-03-12T21:43:02.130Z,99074.13
2019-03-12T21:45:32.673Z,99083.23
2019-03-12T21:48:04.083Z,99066.87
2019-03-12T21:50:34.378Z,99073.13
2019-03-12T21:53:05.736Z,99058.41
2019-03-12T21:55:37.896Z,99046.39
2019-03-12T21:58:08.638Z,99042.30
2019-03-12T22:00:38.928Z,99024.83
2019-03-12T22:03:09.533Z,99017.86
2019-03-12T22:05:39.906Z,99007.76
2019-03-12T22:08:11.279Z,98990.56
2019-03-12T22:10:41.953Z,98981.58
2019-03-12T22:13:12.311Z,98967.27
2019-03-12T22:15:43.122Z,98962.95
2019-03-12T22:18:13.824Z,98958.02
2019-03-12T22:20:45.135Z,98960.91
2019-03-12T22:23:19.936Z,98949.23
2019-03-12T22:25:50.230Z,98954.89
2019-03-12T22:28:20.954Z,98947.81
2019-03-12T22:30:51.184Z,98944.72
2019-03-12T22:33:22.096Z,98941.83
2019-03-12T22:35:53.912Z,98946.51
2019-03-12T22:38:24.402Z,98934.72
2019-03-12T22:40:54.591Z,98938.47
2019-03-12T22:43:26.064Z,98943.41
2019-03-12T22:45:59.510Z,98934.86
2019-03-12T22:48:30.451Z,98934.86
2019-03-12T22:51:01.588Z,98925.45
2019-03-12T22:53:32.138Z,98922.59
2019-03-12T22:56:02.720Z,98909.00
2019-03-12T22:58:36.675Z,98909.58
2019-03-12T23:01:10.298Z,98909.58
2019-03-12T23:03:44.252Z,98903.35
2019-03-12T23:06:14.841Z,98909.97
2019-03-12T23:08:53.101Z,98904.28
2019-03-12T23:11:24.839Z,98898.99
2019-03-12T23:13:55.656Z,98891.45
2019-03-12T23:16:27.155Z,98882.04
2019-03-12T23:19:00.276Z,98876.03
2019-03-12T23:21:31.510Z,98879.39
2019-03-12T23:24:01.763Z,98878.44
2019-03-12T23:26:32.434Z,98867.37
2019-03-12T23:29:02.812Z,98867.97
2019-03-12T23:31:33.157Z,98860.88
2019-03-12T23:34:03.466Z,98865.94
2019-03-12T23:36:33.868Z,98860.16
2019-03-12T23:39:05.286Z,98849.33
2019-03-12T23:41:35.647Z,98867.97
2019-03-12T23:44:06.251Z,98859.07
2019-03-12T23:46:36.516Z,98851.61
2019-03-12T23:49:06.940Z,98850.90
2019-03-12T23:51:37.836Z,98843.55
2019-03-12T23:54:08.125Z,98838.13
2019-03-12T23:56:38.895Z,98837.42
2019-03-12T23:59:09.925Z,98828.64
